createdAt,value
2022-11-16T00:00:40.239Z,5.07
2022-11-16T00:04:42.176Z,4.70
2022-11-16T00:09:07.055Z,4.20
2022-11-16T00:13:09.234Z,3.83
2022-11-16T00:17:10.812Z,4.67
2022-11-16T00:21:12.359Z,4.30
2022-11-16T00:25:13.975Z,4.00
2022-11-16T00:29:17.970Z,4.18
2022-11-16T00:33:19.557Z,3.30
2022-11-16T00:37:21.249Z,4.00
2022-11-16T00:41:23.072Z,3.83
2022-11-16T00:45:24.617Z,3.72
2022-11-16T00:49:26.203Z,3.50
2022-11-16T00:53:27.958Z,3.10
2022-11-16T00:57:29.616Z,3.97
2022-11-16T01:01:31.423Z,3.25
2022-11-16T01:05:33.104Z,3.60
2022-11-16T01:09:34.836Z,3.33
2022-11-16T01:13:36.555Z,3.65
2022-11-16T01:17:40.537Z,3.30
2022-11-16T01:21:42.087Z,3.50
2022-11-16T01:25:43.675Z,3.75
2022-11-16T01:29:45.609Z,3.95
2022-11-16T01:33:47.312Z,3.23
2022-11-16T01:37:55.104Z,3.65
2022-11-16T01:41:57.394Z,3.90
2022-11-16T01:45:59.369Z,4.30
2022-11-16T01:50:08.921Z,3.92
2022-11-16T01:54:13.445Z,3.20
2022-11-16T01:58:27.436Z,3.08
2022-11-16T02:26:45.971Z,2.80
2022-11-16T02:30:51.019Z,3.08
2022-11-16T02:35:11.288Z,3.63
2022-11-16T02:39:18.676Z,3.60
2022-11-16T02:43:29.635Z,4.72
2022-11-16T02:47:34.458Z,4.43
2022-11-16T02:51:40.074Z,4.95
2022-11-16T02:55:41.764Z,5.50
2022-11-16T02:59:48.974Z,5.35
2022-11-16T03:04:09.127Z,6.45
2022-11-16T03:08:36.557Z,7.32
2022-11-16T03:12:41.124Z,8.13
2022-11-16T03:16:48.486Z,8.00
2022-11-16T03:20:57.296Z,8.32
2022-11-16T03:25:01.120Z,9.50
2022-11-16T03:29:29.396Z,10.10
2022-11-16T03:33:47.524Z,10.48
2022-11-16T03:37:55.034Z,11.77
2022-11-16T03:42:00.404Z,10.27
2022-11-16T03:46:02.364Z,9.63
2022-11-16T03:50:04.538Z,10.48
2022-11-16T03:54:06.224Z,9.37
2022-11-16T03:58:09.772Z,8.85
2022-11-16T04:02:13.823Z,9.35
2022-11-16T04:06:34.081Z,8.43
2022-11-16T04:10:54.313Z,7.65
2022-11-16T04:15:25.439Z,7.55
2022-11-16T04:19:45.642Z,6.38
2022-11-16T04:24:07.442Z,6.05
2022-11-16T04:28:16.267Z,5.15
2022-11-16T04:32:42.125Z,4.50
2022-11-16T04:37:02.277Z,4.68
2022-11-16T04:41:05.097Z,4.63
2022-11-16T04:45:26.141Z,4.43
2022-11-16T04:49:28.298Z,5.35
2022-11-16T04:53:33.188Z,5.93
2022-11-16T04:57:42.338Z,6.93
2022-11-16T05:02:03.406Z,6.87
2022-11-16T05:06:05.280Z,7.43
2022-11-16T05:10:08.377Z,7.97
2022-11-16T05:14:10.609Z,8.80
2022-11-16T05:18:14.543Z,8.48
2022-11-16T05:22:16.138Z,9.32
2022-11-16T05:26:17.874Z,10.15
2022-11-16T05:30:20.972Z,9.98
2022-11-16T05:34:23.816Z,9.32
2022-11-16T05:38:25.434Z,10.48
2022-11-16T05:42:30.963Z,9.68
2022-11-16T05:46:33.500Z,8.75
2022-11-16T05:50:42.364Z,8.05
2022-11-16T05:54:54.148Z,8.48
2022-11-16T05:58:56.322Z,9.18
2022-11-16T06:02:58.174Z,9.70
2022-11-16T06:07:04.283Z,9.65
2022-11-16T06:11:10.891Z,9.88
2022-11-16T06:15:14.278Z,9.02
2022-11-16T06:19:15.945Z,8.73
2022-11-16T06:23:17.519Z,9.65
2022-11-16T06:27:21.048Z,9.27
2022-11-16T06:31:22.811Z,6.60
2022-11-16T06:35:24.646Z,8.48
2022-11-16T06:39:26.461Z,8.07
2022-11-16T06:43:28.397Z,8.45
2022-11-16T06:47:30.548Z,8.30
2022-11-16T06:51:33.098Z,7.38
2022-11-16T06:55:34.885Z,8.23
2022-11-16T06:59:38.637Z,7.88
2022-11-16T07:03:40.460Z,7.85
2022-11-16T07:07:43.226Z,8.48
2022-11-16T07:11:45.547Z,9.30
2022-11-16T07:15:49.255Z,9.98
2022-11-16T07:19:51.338Z,10.02
2022-11-16T07:23:59.271Z,9.63
2022-11-16T07:28:01.336Z,10.93
2022-11-16T07:32:18.543Z,11.60
2022-11-16T07:36:49.261Z,10.75
2022-11-16T07:40:52.697Z,10.35
2022-11-16T07:44:56.790Z,10.65
2022-11-16T07:48:58.573Z,10.60
2022-11-16T07:53:35.731Z,10.13
2022-11-16T07:57:37.417Z,11.20
2022-11-16T08:01:41.610Z,10.55
2022-11-16T08:05:47.070Z,10.57
2022-11-16T08:09:50.071Z,9.95
2022-11-16T08:13:52.081Z,9.32
2022-11-16T08:17:58.223Z,9.15
2022-11-16T08:22:03.747Z,9.23
2022-11-16T08:26:13.867Z,7.93
2022-11-16T08:30:15.883Z,7.65
2022-11-16T08:34:19.797Z,7.18
2022-11-16T08:38:24.923Z,7.97
2022-11-16T08:42:26.664Z,6.85
2022-11-16T08:46:28.992Z,7.60
2022-11-16T08:51:09.852Z,7.90
2022-11-16T08:55:01.740Z,7.28
2022-11-16T08:59:03.679Z,6.68
2022-11-16T09:03:05.586Z,5.10
2022-11-16T09:07:07.249Z,6.38
2022-11-16T09:11:15.880Z,6.53
2022-11-16T09:15:19.569Z,6.90
2022-11-16T09:19:21.303Z,7.03
2022-11-16T09:23:25.493Z,8.80
2022-11-16T09:27:27.624Z,7.63
2022-11-16T09:31:34.162Z,7.43
2022-11-16T09:35:35.737Z,5.75
2022-11-16T09:39:37.466Z,4.55
2022-11-16T09:44:07.626Z,4.07
2022-11-16T09:48:13.634Z,3.33
2022-11-16T09:52:34.306Z,4.03
2022-11-16T09:56:40.422Z,3.38
2022-11-16T10:00:49.829Z,2.80
2022-11-16T10:05:14.586Z,3.40
2022-11-16T10:09:16.981Z,3.05
2022-11-16T10:13:33.179Z,1.90
2022-11-16T10:17:49.575Z,1.95
2022-11-16T10:22:28.107Z,1.50
2022-11-16T10:26:48.210Z,1.75
2022-11-16T10:31:14.799Z,2.28
2022-11-16T10:35:30.143Z,1.90
2022-11-16T10:39:34.064Z,1.67
2022-11-16T10:43:36.289Z,1.90
2022-11-16T10:47:50.290Z,2.35
2022-11-16T10:51:53.767Z,2.00
2022-11-16T10:56:20.033Z,2.00
2022-11-16T11:00:44.497Z,1.67
2022-11-16T11:05:02.326Z,1.98
2022-11-16T11:09:29.024Z,1.45
2022-11-16T11:13:35.012Z,1.63
2022-11-16T11:17:47.271Z,1.40
2022-11-16T11:21:49.323Z,1.70
2022-11-16T11:25:53.633Z,1.60
2022-11-16T11:29:58.827Z,1.60
2022-11-16T11:34:17.679Z,1.70
2022-11-16T11:38:19.302Z,1.90
2022-11-16T11:42:23.318Z,1.83
2022-11-16T11:46:56.052Z,2.10
2022-11-16T11:50:56.887Z,1.33
2022-11-16T11:55:00.389Z,1.80
2022-11-16T11:59:04.550Z,1.65
2022-11-16T12:03:24.975Z,1.58
2022-11-16T12:07:37.079Z,1.52
2022-11-16T12:11:53.743Z,1.10
2022-11-16T12:16:02.997Z,1.27
2022-11-16T12:20:29.482Z,1.65
2022-11-16T12:24:42.953Z,2.13
2022-11-16T12:29:02.721Z,2.33
2022-11-16T12:33:16.414Z,1.70
2022-11-16T12:37:39.609Z,1.50
2022-11-16T12:41:53.662Z,1.02
2022-11-16T12:46:06.122Z,1.70
2022-11-16T12:50:32.777Z,1.40
2022-11-16T12:55:19.021Z,1.35
2022-11-16T12:59:47.149Z,1.48
2022-11-16T13:04:00.313Z,1.45
2022-11-16T13:08:12.295Z,1.02
2022-11-16T13:12:17.302Z,1.33
2022-11-16T13:16:20.529Z,1.45
2022-11-16T13:21:06.827Z,1.30
2022-11-16T13:25:27.140Z,1.00
2022-11-16T13:29:37.836Z,1.65
2022-11-16T13:33:51.066Z,1.15
2022-11-16T13:37:53.619Z,1.60
2022-11-16T13:42:13.196Z,1.73
2022-11-16T13:46:40.816Z,1.38
2022-11-16T13:50:40.097Z,1.50
2022-11-16T13:54:46.820Z,1.83
2022-11-16T13:58:55.808Z,1.55
2022-11-16T14:03:15.691Z,1.42
2022-11-16T14:07:29.372Z,2.10
2022-11-16T14:11:34.495Z,1.23
2022-11-16T14:15:38.051Z,1.90
2022-11-16T14:19:47.575Z,1.58
2022-11-16T14:23:49.238Z,2.15
2022-11-16T14:27:55.594Z,1.50
2022-11-16T14:31:59.457Z,1.67
2022-11-16T14:36:03.580Z,1.27
2022-11-16T14:40:16.861Z,1.50
2022-11-16T14:44:27.495Z,1.63
2022-11-16T14:48:29.535Z,1.40
2022-11-16T14:52:43.982Z,1.17
2022-11-16T14:56:56.811Z,1.63
2022-11-16T15:01:00.838Z,2.10
2022-11-16T15:05:03.237Z,1.35
2022-11-16T15:09:05.584Z,1.40
2022-11-16T15:13:07.708Z,2.38
2022-11-16T15:17:16.312Z,1.10
2022-11-16T15:21:22.543Z,1.50
2022-11-16T15:25:35.836Z,1.25
2022-11-16T15:29:37.878Z,1.20
2022-11-16T15:33:43.692Z,1.10
2022-11-16T15:37:45.410Z,1.83
2022-11-16T15:41:47.642Z,1.33
2022-11-16T15:45:55.935Z,1.15
2022-11-16T15:49:57.628Z,1.58
2022-11-16T15:54:24.237Z,1.50
2022-11-16T15:58:29.121Z,1.73
2022-11-16T16:02:32.205Z,1.48
2022-11-16T16:06:45.754Z,1.70
2022-11-16T16:10:57.781Z,1.23
2022-11-16T16:15:22.869Z,1.15
2022-11-16T16:19:38.566Z,1.80
2022-11-16T16:23:48.109Z,1.23
2022-11-16T16:27:49.673Z,0.98
2022-11-16T16:31:51.303Z,1.38
2022-11-16T16:35:52.858Z,1.50
2022-11-16T16:39:54.542Z,2.60
2022-11-16T16:43:56.152Z,1.40
2022-11-16T16:47:57.751Z,1.80
2022-11-16T16:51:59.543Z,3.35
2022-11-16T16:56:01.783Z,3.53
2022-11-16T17:00:04.096Z,2.90
2022-11-16T17:04:06.872Z,2.67
2022-11-16T17:08:08.475Z,2.57
2022-11-16T17:12:11.093Z,2.10
2022-11-16T17:16:12.715Z,2.00
2022-11-16T17:20:14.748Z,5.10
2022-11-16T17:24:16.694Z,4.73
2022-11-16T17:28:18.277Z,4.75
2022-11-16T17:32:19.834Z,4.60
2022-11-16T17:36:21.373Z,3.15
2022-11-16T17:40:22.978Z,2.75
2022-11-16T17:44:24.592Z,2.10
2022-11-16T17:48:26.600Z,1.90
2022-11-16T17:52:29.259Z,2.60
2022-11-16T17:56:30.980Z,2.65
2022-11-16T18:00:32.568Z,1.40
2022-11-16T18:04:34.156Z,1.50
2022-11-16T18:08:37.378Z,1.80
2022-11-16T18:12:39.024Z,1.70
2022-11-16T18:16:44.381Z,1.27
2022-11-16T18:20:50.785Z,2.05
2022-11-16T18:24:52.379Z,3.67
2022-11-16T18:28:54.173Z,3.35
2022-11-16T18:32:55.723Z,2.45
2022-11-16T18:36:57.374Z,2.22
2022-11-16T18:41:19.746Z,2.45
2022-11-16T18:45:21.670Z,2.23
2022-11-16T18:49:23.310Z,1.92
2022-11-16T18:53:25.390Z,1.77
2022-11-16T18:57:27.014Z,1.80
2022-11-16T19:01:29.026Z,1.83
2022-11-16T19:05:30.603Z,2.20
2022-11-16T19:09:32.294Z,1.85
2022-11-16T19:13:34.426Z,1.67
2022-11-16T19:17:48.165Z,1.25
2022-11-16T19:21:58.450Z,1.60
2022-11-16T19:26:02.078Z,1.70
2022-11-16T19:30:04.575Z,1.30
2022-11-16T19:34:08.145Z,1.73
2022-11-16T19:38:09.704Z,1.90
2022-11-16T19:42:11.390Z,1.90
2022-11-16T19:46:20.387Z,1.25
2022-11-16T19:50:23.624Z,1.02
2022-11-16T19:54:25.641Z,1.02
2022-11-16T19:58:27.357Z,1.88
2022-11-16T20:02:29.028Z,1.13
2022-11-16T20:06:36.333Z,1.08
2022-11-16T20:10:38.136Z,1.98
2022-11-16T20:14:39.832Z,1.27
2022-11-16T20:18:42.776Z,1.25
2022-11-16T20:26:48.659Z,0.70
2022-11-16T20:30:50.407Z,1.02
2022-11-16T20:34:52.005Z,1.33
2022-11-16T20:38:54.024Z,0.63
2022-11-16T20:42:59.147Z,1.20
2022-11-16T20:47:00.731Z,0.90
2022-11-16T20:51:02.862Z,0.80
2022-11-16T20:55:04.998Z,1.40
2022-11-16T20:59:06.587Z,0.83
2022-11-16T21:03:08.297Z,1.17
2022-11-16T21:07:10.014Z,0.77
2022-11-16T21:11:13.597Z,0.90
2022-11-16T21:15:15.323Z,1.30
2022-11-16T21:19:17.072Z,0.98
2022-11-16T21:23:18.722Z,0.80
2022-11-16T21:27:20.246Z,1.15
2022-11-16T21:31:25.658Z,1.00
2022-11-16T21:35:27.315Z,0.93
2022-11-16T21:39:30.218Z,1.17
2022-11-16T21:47:35.899Z,1.30
2022-11-16T21:51:37.457Z,1.05
2022-11-16T21:55:39.009Z,1.10
2022-11-16T21:59:40.814Z,1.10
2022-11-16T22:03:42.626Z,1.08
2022-11-16T22:07:44.255Z,0.85
2022-11-16T22:11:45.825Z,1.02
2022-11-16T22:15:47.471Z,1.20
2022-11-16T22:19:49.115Z,0.80
2022-11-16T22:23:50.742Z,1.00
2022-11-16T22:28:19.021Z,0.90
2022-11-16T22:32:15.205Z,1.48
2022-11-16T22:36:16.742Z,1.70
2022-11-16T22:40:18.303Z,1.00
2022-11-16T22:44:23.400Z,1.13
2022-11-16T22:48:31.326Z,0.93
2022-11-16T22:52:32.966Z,1.13
2022-11-16T22:56:34.825Z,1.10
2022-11-16T23:00:41.839Z,1.20
2022-11-16T23:04:43.896Z,1.20
2022-11-16T23:08:45.693Z,0.90
2022-11-16T23:13:06.070Z,1.25
2022-11-16T23:17:08.214Z,0.98
2022-11-16T23:21:28.509Z,1.13
2022-11-16T23:25:48.697Z,1.20
2022-11-16T23:29:50.443Z,1.10
2022-11-16T23:33:52.013Z,0.98
2022-11-16T23:37:57.601Z,1.60
2022-11-16T23:42:18.551Z,1.02
2022-11-16T23:46:20.142Z,2.75
2022-11-16T23:50:21.692Z,1.80
2022-11-16T23:54:23.247Z,1.20
2022-11-16T23:58:24.902Z,1.40
